Decoded Metar for KFHR (FRIDAY HARBOR in WA, USA) (IATA:FHR) | Meteo·Mobile Aviation Weather
aviador You're here:

KFHR Decoded Metar

FRIDAY HARBOR in WA, USA
Report Time2018-10-22 23:53:00
UTC Time2018-10-23 00:54:12
Flight Rules vfr VFR
WindCalm
Visibility9999 m
Phenomena:N/A
Clouds:N/A
Expected CloudBase > 1,600 ft AGL from Temp-Dew spread
CeilingNone
Temp12°C (ISA -3)
Dew Point08°C (77% RH)
AAT11.6°C
QNH1013 hPa
Density Alt-82 ft
Elevation105 ft
Report Wrong Elevation
Raw Report
KFHR 222353Z AUTO 00000KT 10SM CLR 12/08 A2990 RMK AO2 SLP125
T01170083 10128 20089 56017=

Extra information for KFHR:More info

Metar Taf Metar & Taf Last 4 Metars F.Rules Stats Wind Profile Meteogram Temp Stats Airport Information Weather charts Add Link Nearby VenuesMetar ALERT Operation Metar Decoded Social comments

AIRNAV info for KFHR
Kenmore Air